Terminal Aerodrome Forecast
Issued by NWS

Home | Current Version | Previous Version | Text Only | Print | Product List | Glossary On
Versions: 1 2 3 4 5 6 7 8 9 10 11 12 13 14 15
000
FTUS44 KJAN 250549
TAFHKS
TAF
KHKS 250549Z 2506/2606 00000KT P6SM SKC
     FM251100 00000KT 5SM BR SKC
     FM251400 11005KT P6SM FEW250
     FM251900 10006KT P6SM VCTS BKN050CB
     FM260000 12005KT P6SM FEW050=

USA.gov is the U.S. government's official web portal to all federal, state and local government web resources and services.